Andalusia, AL

9:02 AM CST on February 27, 2017 (GMT -0600)
Chigger Hill off Moore Rd | | Change Station

Elev 280 ft 31.25 °N, 86.50 °W | Updated 19 seconds ago

Partly Cloudy
Partly Cloudy
59.7 °F
Feels Like 59.7 °F
N
0.0
Wind Variable Wind from ESE
Gusts 5.0 mph

Today
High -- | Low -- °F
--% Chance of Precip.
Yesterday
High -- | Low -- °F
Precip. -- in
Pressure 30.19 in
Visibility 10.0 miles
Clouds Overcast 10000 ft
Dew Point 53 °F
Humidity 79%
Rainfall 0.00 in
Snow Depth Not available.
6:14 AM 5:42 PM
New Moon, 1% visible
METAR K79J 271456Z AUTO 15008KT 10SM OVC100 17/11 A3020 RMK AO2 SLP223 T01720106 53004
Pressure 30.19 in
Visibility 10.0 miles
Clouds Overcast 10000 ft
Dew Point 53 °F
Humidity 79%
Rainfall 0.00 in
Snow Depth Not available.
6:14 AM 5:42 PM
New Moon, 1% visible
METAR K79J 271456Z AUTO 15008KT 10SM OVC100 17/11 A3020 RMK AO2 SLP223 T01720106 53004

Get Your Daily Forecast Email!

Thanks for signing up!

Be on the lookout for a verification email in your inbox.

You'll start receiving the daily forecast at 8 AM.

×

10-Day Weather Forecast

Almanac

Astronomy

Feb. 27, 2017 Rise Set
Actual Time
Civil Twilight
Nautical Twilight
Astronomical Twilight
Moon
Length of Visible Light
Length of Day
Tomorrow will be .
, % of the Moon is Illuminated

Today's Extremes

State Highs State Lows

Community

WunderPhotos

Upload Photos

1,962,540 photos uploaded!

WunderBlog® & News

Nearby

Air Quality

  Air Quality AQ Index Pollutant
Not available.

Snow Depth

Station Depth Elevation

Earthquake Activity

City Distance Mag. Time & Date
Minimum magnitude displayed is 2.5.

Coastal Water Temperatures

Place Temperature

Stations

Nearby Weather Stations

Station Location Temp. Windchill Dew Point Humidity Wind Precip. Elev Updated Type
                   

Watches & Warnings

There are currently no watches in effect.